Rives Junction, Michigan
Current Conditions -  °F | °C
As of 7:56 PM on Monday 24 Nov 2014 (Local Time) from KJXN Reporting Station
Overcast Overcast  
Wind Chill: 21°   Ceiling: 1100
Heat Index: 32°   Visibility: 10mi
Dew Point: 29°   Wind: 17mph
Humidity: 88%   Direction: 230°SW
Pressure: 29.58"   Gusts: 33mph
Location:  42.39°N, 84.46°W
Report Text: KJXN 250056Z 23015G29KT 10SM BKN011 OVC016 00/M02 A2958 RMK AO2 PK WND 24038/0004 SLP022 T00001017
Loading
Personal Weather Stations






























Interactive Weather Map New forecast layout! Learn more

10-Day Weather Forecast

Advertisements
Track Severe Weather on mobile